Time;durP1;ratioP1;P1;durP2;ratioP2;P2;SDS_P1;SDS_P2;PMS_P1;PMS_P2;Temp;Humidity;BMP_temperature;BMP_pressure;BME280_temperature;BME280_humidity;BME280_pressure;Samples;Min_cycle;Max_cycle;Signal;HPM_P1;HPM_P2
2022/01/04 00:02:11;;;;;;;16.27;8.40;;;;;;;8.20;89.77;100178.03;5057719;28;20078;-60
2022/01/04 00:04:36;;;;;;;14.93;8.13;;;;;;;8.18;89.70;100171.28;5053566;28;20057;-61
2022/01/04 00:07:02;;;;;;;11.02;9.07;;;;;;;8.15;89.82;100167.16;5060514;28;20040;-60
2022/01/04 00:09:27;;;;;;;12.52;9.23;;;;;;;8.12;89.72;100164.84;5053759;28;20082;-60
2022/01/04 00:14:21;;;;;;;16.85;10.05;;;;;;;8.08;90.07;100159.06;5058023;28;20230;-60
2022/01/04 00:16:47;;;;;;;14.88;10.73;;;;;;;8.06;90.27;100154.94;5055471;28;20116;-60
2022/01/04 00:19:12;;;;;;;12.45;10.20;;;;;;;8.07;90.38;100153.94;5056652;28;20320;-60
2022/01/04 00:21:38;;;;;;;13.10;10.35;;;;;;;8.07;90.66;100151.28;5059457;28;20115;-60
2022/01/04 00:24:04;;;;;;;17.58;11.18;;;;;;;8.06;90.43;100147.00;5060103;28;20029;-60
2022/01/04 00:26:30;;;;;;;13.32;9.70;;;;;;;8.04;90.50;100133.94;5067134;28;20056;-60
2022/01/04 00:28:55;;;;;;;17.55;10.40;;;;;;;8.04;90.28;100131.31;5057179;28;20028;-60
2022/01/04 00:31:21;;;;;;;14.68;9.90;;;;;;;8.01;90.34;100115.78;5061543;28;20111;-60
2022/01/04 00:33:47;;;;;;;13.77;10.27;;;;;;;8.02;90.67;100111.31;5054131;28;20059;-60
2022/01/04 00:36:12;;;;;;;16.10;10.27;;;;;;;8.01;90.74;100104.38;5059057;28;20036;-60
2022/01/04 00:38:38;;;;;;;15.77;10.20;;;;;;;7.99;90.52;100101.91;5062079;28;20021;-60
2022/01/04 00:41:03;;;;;;;14.80;10.85;;;;;;;7.96;90.33;100093.50;5062138;28;20051;-60
2022/01/04 00:43:29;;;;;;;15.68;10.57;;;;;;;7.95;90.46;100089.22;5059336;28;20093;-60
2022/01/04 00:45:54;;;;;;;17.23;10.70;;;;;;;7.95;90.27;100081.28;5063654;28;20024;-60
2022/01/04 00:50:46;;;;;;;15.88;10.48;;;;;;;7.95;90.54;100086.56;5062339;28;20125;-60
2022/01/04 00:53:11;;;;;;;14.63;11.20;;;;;;;7.95;90.33;100076.81;5066531;28;20095;-59
2022/01/04 00:55:37;;;;;;;13.70;10.32;;;;;;;7.96;90.41;100083.75;5062744;28;20402;-60
2022/01/04 00:58:04;;;;;;;16.25;10.63;;;;;;;7.97;90.12;100071.34;5056760;28;20052;-60
2022/01/04 01:00:29;;;;;;;13.93;9.80;;;;;;;7.94;90.06;100056.66;5060443;28;20407;-60
2022/01/04 01:02:55;;;;;;;14.65;9.60;;;;;;;7.97;89.93;100060.78;5060265;28;20483;-60
2022/01/04 01:05:24;;;;;;;13.18;9.38;;;;;;;7.95;89.90;100058.31;5052146;28;20028;-60
2022/01/04 01:07:50;;;;;;;12.40;8.65;;;;;;;7.94;90.20;100055.84;5059911;28;20086;-60
2022/01/04 01:12:43;;;;;;;13.48;8.45;;;;;;;7.94;90.20;100055.84;5057575;28;20040;-60
2022/01/04 01:15:10;;;;;;;12.95;7.82;;;;;;;7.88;89.88;100057.38;5060863;28;20035;-60
2022/01/04 01:17:36;;;;;;;12.48;7.88;;;;;;;7.90;90.25;100059.84;5060278;28;20028;-60
2022/01/04 01:20:04;;;;;;;12.43;7.90;;;;;;;7.92;90.10;100057.84;5062674;28;20036;-60
2022/01/04 01:22:30;;;;;;;11.07;7.63;;;;;;;7.90;90.16;100047.44;5057721;28;20032;-60
2022/01/04 01:24:55;;;;;;;13.43;7.13;;;;;;;7.88;90.01;100046.78;5053989;28;20287;-60
2022/01/04 01:27:20;;;;;;;9.30;6.93;;;;;;;7.87;90.12;100036.38;5057431;28;20024;-60
2022/01/04 01:29:46;;;;;;;10.80;7.00;;;;;;;7.85;89.93;100033.09;5056746;28;20020;-60
2022/01/04 01:32:11;;;;;;;11.95;7.10;;;;;;;7.82;90.01;100030.81;5058281;28;20032;-60
2022/01/04 01:34:36;;;;;;;9.93;7.38;;;;;;;7.81;89.62;100034.44;5062983;28;20021;-60
2022/01/04 01:37:02;;;;;;;10.30;7.20;;;;;;;7.79;89.66;100031.94;5051654;28;20472;-60
2022/01/04 01:39:27;;;;;;;13.15;7.45;;;;;;;7.74;89.84;100023.72;5050167;28;20068;-60
2022/01/04 01:41:53;;;;;;;12.50;8.40;;;;;;;7.73;89.62;100020.25;5054083;28;20351;-60
2022/01/04 01:44:19;;;;;;;13.20;8.18;;;;;;;7.73;89.68;100019.41;5059974;28;20020;-60
2022/01/04 01:46:45;;;;;;;11.50;7.23;;;;;;;7.71;89.88;100013.50;5055533;28;20070;-60
2022/01/04 01:49:10;;;;;;;10.55;7.80;;;;;;;7.69;89.89;100011.03;5055742;28;20028;-60
2022/01/04 01:51:35;;;;;;;12.82;8.45;;;;;;;7.70;89.92;100006.56;5059544;28;20445;-60
2022/01/04 01:54:00;;;;;;;12.45;8.40;;;;;;;7.70;90.22;100007.38;5064989;28;20021;-60
2022/01/04 01:56:29;;;;;;;12.87;9.00;;;;;;;7.70;90.20;100002.09;5055033;28;20029;-60
2022/01/04 01:58:55;;;;;;;16.25;9.20;;;;;;;7.70;90.27;100009.19;5056442;28;20048;-60
2022/01/04 02:01:21;;;;;;;13.43;9.97;;;;;;;7.67;90.10;100007.72;5050099;28;20029;-60
2022/01/04 02:03:46;;;;;;;16.30;11.53;;;;;;;7.67;90.14;100002.44;5059406;28;20029;-60
2022/01/04 02:06:12;;;;;;;14.20;11.33;;;;;;;7.68;90.16;100001.44;5054704;28;20045;-60
2022/01/04 02:08:37;;;;;;;17.90;10.90;;;;;;;7.69;90.36;100000.44;5060628;28;20024;-60
2022/01/04 02:11:02;;;;;;;16.70;11.18;;;;;;;7.70;90.54;99996.00;5056231;28;20036;-60
2022/01/04 02:13:28;;;;;;;14.57;11.33;;;;;;;7.69;90.23;99981.13;5061460;28;20032;-60
2022/01/04 02:15:54;;;;;;;15.52;11.65;;;;;;;7.70;90.20;99988.06;5051593;28;20396;-59
2022/01/04 02:18:20;;;;;;;16.35;11.27;;;;;;;7.70;90.21;99973.03;5058225;28;20021;-60
2022/01/04 02:20:45;;;;;;;17.07;11.00;;;;;;;7.71;90.48;99966.75;5059004;28;20402;-60
2022/01/04 02:23:10;;;;;;;17.20;11.55;;;;;;;7.70;90.20;99959.81;5057703;28;20024;-60
2022/01/04 02:25:35;;;;;;;15.85;10.63;;;;;;;7.70;90.36;99953.72;5059563;28;20025;-60
2022/01/04 02:28:01;;;;;;;15.40;10.90;;;;;;;7.69;89.91;99960.00;5057478;28;20111;-60
2022/01/04 02:30:26;;;;;;;13.77;11.13;;;;;;;7.68;89.89;99953.88;5063016;28;20107;-60
2022/01/04 02:32:52;;;;;;;14.13;10.10;;;;;;;7.67;90.24;99952.22;5062597;28;20147;-60
2022/01/04 02:35:20;;;;;;;14.68;10.32;;;;;;;7.67;90.05;99961.97;5063829;28;20024;-60
2022/01/04 02:37:46;;;;;;;13.67;9.77;;;;;;;7.66;90.12;99957.69;5051621;28;20374;-60
2022/01/04 02:40:11;;;;;;;11.80;9.55;;;;;;;7.66;90.52;99955.06;5050313;28;20538;-60
2022/01/04 02:42:37;;;;;;;14.60;9.67;;;;;;;7.64;90.41;99952.59;5055289;28;20132;-60
2022/01/04 02:45:03;;;;;;;10.50;8.73;;;;;;;7.64;90.13;99949.13;5057408;28;20504;-60
2022/01/04 02:47:29;;;;;;;11.77;8.30;;;;;;;7.63;89.95;99937.72;5054339;28;20048;-60
2022/01/04 02:49:56;;;;;;;11.63;8.32;;;;;;;7.63;90.06;99931.63;5052259;28;20129;-60
2022/01/04 02:52:21;;;;;;;10.68;7.80;;;;;;;7.63;90.04;99932.44;5064563;28;20025;-60
2022/01/04 02:54:46;;;;;;;13.23;9.07;;;;;;;7.61;90.20;99937.09;5059111;28;20264;-60
2022/01/04 02:57:11;;;;;;;12.90;8.80;;;;;;;7.59;90.15;99923.22;5064771;28;20502;-60
2022/01/04 02:59:37;;;;;;;11.23;8.73;;;;;;;7.60;89.88;99921.41;5056980;28;20020;-60
2022/01/04 03:02:03;;;;;;;12.40;7.85;;;;;;;7.60;90.07;99924.88;5059061;28;20090;-60
2022/01/04 03:04:29;;;;;;;12.88;8.15;;;;;;;7.59;89.88;99910.00;5062397;28;20526;-61
2022/01/04 03:06:54;;;;;;;11.15;8.60;;;;;;;7.59;89.79;99910.00;5059642;28;20040;-60
2022/01/04 03:09:19;;;;;;;11.25;8.13;;;;;;;7.59;89.99;99906.53;5063768;28;20031;-60
2022/01/04 03:11:45;;;;;;;10.75;7.75;;;;;;;7.59;90.20;99917.13;5068663;28;20024;-60
2022/01/04 03:14:10;;;;;;;14.77;8.20;;;;;;;7.57;89.95;99903.25;5060534;28;20044;-60
2022/01/04 03:16:36;;;;;;;12.37;8.63;;;;;;;7.56;90.06;99898.97;5060942;28;20052;-59
2022/01/04 03:19:09;;;;;;;12.52;9.10;;;;;;;7.55;90.10;99884.94;5061293;28;20025;-60
2022/01/04 03:21:40;;;;;;;15.00;9.53;;;;;;;7.55;90.16;99882.28;5066327;28;20055;-60
2022/01/04 03:24:07;;;;;;;11.85;9.30;;;;;;;7.53;89.78;99884.28;5061858;28;20111;-60
2022/01/04 03:26:32;;;;;;;11.25;9.35;;;;;;;7.54;90.05;99871.91;5066064;28;20527;-60
2022/01/04 03:28:58;;;;;;;13.53;9.67;;;;;;;7.52;90.06;99864.16;5058667;28;20032;-60
2022/01/04 03:31:24;;;;;;;17.50;10.90;;;;;;;7.51;90.23;99854.56;5068220;28;20037;-60
2022/01/04 03:33:50;;;;;;;14.50;10.47;;;;;;;7.51;90.24;99854.56;5057849;28;20116;-60
2022/01/04 03:36:15;;;;;;;17.65;11.43;;;;;;;7.49;89.86;99840.69;5059947;28;20123;-60
2022/01/04 03:38:42;;;;;;;13.52;10.40;;;;;;;7.49;90.21;99826.69;5060112;28;20056;-60
2022/01/04 03:41:08;;;;;;;14.82;9.88;;;;;;;7.47;90.22;99826.84;5062858;28;20039;-60
2022/01/04 03:43:37;;;;;;;14.75;11.32;;;;;;;7.46;90.18;99820.75;5061794;28;20115;-60
2022/01/04 03:46:02;;;;;;;15.10;10.50;;;;;;;7.45;90.61;99811.19;5060419;28;20537;-59
2022/01/04 03:48:27;;;;;;;16.42;10.50;;;;;;;7.45;90.41;99810.34;5054721;28;20104;-60
2022/01/04 03:50:52;;;;;;;15.63;10.50;;;;;;;7.43;90.56;99807.88;5060681;28;20040;-60
2022/01/04 03:53:18;;;;;;;12.90;10.48;;;;;;;7.41;90.67;99815.16;5056547;28;20032;-60
2022/01/04 03:55:43;;;;;;;14.30;10.70;;;;;;;7.42;90.78;99813.34;5064028;28;20473;-60
2022/01/04 03:58:09;;;;;;;16.80;10.43;;;;;;;7.40;90.35;99800.31;5059644;28;20035;-61
2022/01/04 04:00:34;;;;;;;13.57;9.97;;;;;;;7.40;90.78;99799.50;5062232;28;20400;-60
2022/01/04 04:02:59;;;;;;;15.85;11.23;;;;;;;7.40;90.64;99794.22;5060857;28;20087;-60
2022/01/04 04:05:24;;;;;;;14.45;10.85;;;;;;;7.40;90.54;99783.66;5059949;28;20052;-60
2022/01/04 04:07:50;;;;;;;14.82;10.50;;;;;;;7.40;90.79;99786.28;5057091;28;20412;-60
2022/01/04 04:10:15;;;;;;;14.73;10.43;;;;;;;7.38;90.25;99785.66;5063015;28;20029;-60
2022/01/04 04:12:40;;;;;;;15.25;10.63;;;;;;;7.39;90.39;99782.00;5062101;28;20039;-60
2022/01/04 04:15:08;;;;;;;18.15;10.70;;;;;;;7.39;90.82;99771.44;5059988;28;20020;-60
2022/01/04 04:17:35;;;;;;;13.27;10.15;;;;;;;7.38;90.48;99775.09;5057166;28;20547;-60
2022/01/04 04:20:00;;;;;;;15.80;10.53;;;;;;;7.38;90.47;99764.53;5052387;28;20060;-60
2022/01/04 04:22:25;;;;;;;16.25;10.70;;;;;;;7.36;90.73;99751.50;5062092;28;20086;-60
2022/01/04 04:24:51;;;;;;;14.53;10.43;;;;;;;7.36;91.13;99755.97;5060909;28;20017;-60
2022/01/04 04:27:16;;;;;;;17.63;10.98;;;;;;;7.33;91.00;99751.84;5057008;28;20044;-60
2022/01/04 04:29:41;;;;;;;17.20;10.80;;;;;;;7.33;91.12;99745.75;5057212;28;20376;-60
2022/01/04 04:32:07;;;;;;;16.60;10.35;;;;;;;7.32;90.92;99754.66;5068454;28;20064;-60
2022/01/04 04:34:33;;;;;;;16.83;10.83;;;;;;;7.28;90.80;99748.09;5054007;28;20028;-60
2022/01/04 04:36:58;;;;;;;16.97;10.80;;;;;;;7.29;91.24;99755.84;5060268;28;20445;-60
2022/01/04 04:39:24;;;;;;;15.83;11.23;;;;;;;7.29;91.02;99752.38;5058126;28;20032;-60
2022/01/04 04:41:52;;;;;;;16.40;11.87;;;;;;;7.28;91.34;99748.09;5059217;28;20614;-60
2022/01/04 04:44:18;;;;;;;17.57;11.47;;;;;;;7.29;91.57;99755.03;5054801;28;20029;-60
2022/01/04 04:46:44;;;;;;;15.98;11.68;;;;;;;7.28;91.36;99748.09;5059107;28;20043;-60
2022/01/04 04:49:09;;;;;;;21.33;11.40;;;;;;;7.28;91.34;99748.09;5061161;28;20021;-60
2022/01/04 04:51:34;;;;;;;16.97;11.57;;;;;;;7.28;91.28;99738.34;5060960;28;20052;-60
2022/01/04 04:54:00;;;;;;;16.73;11.57;;;;;;;7.28;91.26;99742.81;5054465;28;20020;-60
2022/01/04 04:56:25;;;;;;;16.48;11.25;;;;;;;7.27;91.31;99752.56;5055785;28;21068;-60
2022/01/04 04:58:50;;;;;;;19.60;10.90;;;;;;;7.25;91.47;99745.81;5056331;28;20025;-60
2022/01/04 05:01:16;;;;;;;18.05;11.35;;;;;;;7.25;91.58;99745.81;5058655;28;20396;-60
2022/01/04 05:03:41;;;;;;;15.45;11.13;;;;;;;7.26;91.67;99752.75;5058343;28;20028;-60
2022/01/04 05:06:06;;;;;;;18.47;12.30;;;;;;;7.25;91.70;99737.91;5057318;28;20059;-60
2022/01/04 05:08:32;;;;;;;14.57;10.77;;;;;;;7.24;91.22;99730.97;5062728;28;20035;-60
2022/01/04 05:10:57;;;;;;;15.63;11.10;;;;;;;7.23;91.73;99729.28;5060733;28;20051;-60
2022/01/04 05:13:23;;;;;;;14.77;11.00;;;;;;;7.22;91.33;99743.50;5056115;28;20479;-60
2022/01/04 05:15:48;;;;;;;14.88;9.93;;;;;;;7.21;91.49;99739.22;5058763;28;20051;-60
2022/01/04 05:18:14;;;;;;;14.98;10.30;;;;;;;7.19;91.83;99722.72;5060799;28;20169;-60
2022/01/04 05:20:39;;;;;;;16.27;10.57;;;;;;;7.19;91.48;99722.72;5055662;28;20039;-60
2022/01/04 05:23:04;;;;;;;15.77;10.70;;;;;;;7.19;91.90;99723.56;5051720;28;20029;-60
2022/01/04 05:25:29;;;;;;;19.57;11.30;;;;;;;7.18;91.69;99715.81;5054956;28;20032;-60
2022/01/04 05:27:55;;;;;;;15.88;11.70;;;;;;;7.15;91.70;99709.88;5052698;28;20508;-60
2022/01/04 05:30:20;;;;;;;16.43;11.50;;;;;;;7.17;91.82;99709.72;5055391;28;20028;-60
2022/01/04 05:32:45;;;;;;;18.48;11.38;;;;;;;7.17;91.57;99700.97;5064248;28;20035;-60
2022/01/04 05:35:10;;;;;;;17.73;11.07;;;;;;;7.15;92.19;99698.50;5057916;28;20120;-60
2022/01/04 05:37:36;;;;;;;18.47;11.60;;;;;;;7.15;91.94;99690.59;5055929;28;20032;-60
2022/01/04 05:40:02;;;;;;;18.07;12.20;;;;;;;7.14;91.63;99694.22;5055958;28;20118;-60
2022/01/04 05:42:27;;;;;;;16.43;11.87;;;;;;;7.14;91.57;99691.59;5059766;28;20584;-60
2022/01/04 05:44:53;;;;;;;16.47;11.77;;;;;;;7.13;91.90;99676.75;5063535;28;20063;-60
2022/01/04 05:47:18;;;;;;;17.60;11.97;;;;;;;7.13;92.05;99690.75;5065950;28;20062;-60
2022/01/04 05:49:43;;;;;;;19.40;11.77;;;;;;;7.14;91.84;99686.31;5056916;28;20499;-60
2022/01/04 05:52:08;;;;;;;20.03;11.23;;;;;;;7.12;91.85;99683.84;5062489;28;20036;-60
2022/01/04 05:54:34;;;;;;;18.07;11.20;;;;;;;7.12;91.84;99681.19;5052347;28;20037;-61
2022/01/04 05:56:59;;;;;;;17.70;11.45;;;;;;;7.12;92.27;99681.19;5056063;28;20432;-60
2022/01/04 05:59:24;;;;;;;19.20;11.70;;;;;;;7.11;92.39;99684.84;5057065;28;20043;-60
2022/01/04 06:01:50;;;;;;;17.83;11.47;;;;;;;7.11;92.37;99689.28;5053372;28;20029;-60
2022/01/04 06:04:16;;;;;;;20.83;11.50;;;;;;;7.11;92.39;99686.66;5059909;28;20020;-60
2022/01/04 06:06:42;;;;;;;18.20;11.27;;;;;;;7.09;92.38;99681.56;5057805;28;20177;-60
2022/01/04 06:09:15;;;;;;;20.27;12.30;;;;;;;7.09;92.51;99681.56;5061356;28;20037;-60
2022/01/04 06:16:50;;;;;;;22.37;12.17;;;;;;;7.08;92.76;99664.06;5063261;28;20047;-60
2022/01/04 06:19:16;;;;;;;24.57;12.37;;;;;;;7.08;92.86;99664.06;5054098;28;20025;-60
2022/01/04 06:21:41;;;;;;;22.77;12.63;;;;;;;7.08;92.87;99668.53;5057140;28;20473;-60
2022/01/04 06:24:06;;;;;;;23.73;13.40;;;;;;;7.08;93.05;99673.81;5061408;28;20468;-60
2022/01/04 06:26:32;;;;;;;22.40;12.85;;;;;;;7.06;92.82;99663.44;5061361;28;20034;-60
2022/01/04 06:28:57;;;;;;;23.87;13.23;;;;;;;7.05;93.10;99656.50;5058545;28;20033;-60
2022/01/04 06:31:25;;;;;;;25.50;14.37;;;;;;;7.04;93.41;99659.31;5060769;28;20056;-60
2022/01/04 06:33:50;;;;;;;22.80;13.30;;;;;;;7.02;93.22;99672.72;5056905;28;20530;-60
2022/01/04 06:36:16;;;;;;;27.63;14.03;;;;;;;7.01;93.66;99668.44;5060630;28;20143;-60
2022/01/04 06:38:41;;;;;;;26.90;14.67;;;;;;;7.00;93.92;99671.25;5057332;28;20029;-60
2022/01/04 06:41:06;;;;;;;28.47;14.77;;;;;;;7.00;93.99;99666.78;5053219;28;20053;-60
2022/01/04 06:43:32;;;;;;;26.17;14.40;;;;;;;6.98;93.83;99654.75;5053349;28;20059;-60
2022/01/04 06:45:57;;;;;;;27.77;14.37;;;;;;;6.97;93.78;99661.84;5053561;28;20021;-59
2022/01/04 06:48:22;;;;;;;28.73;15.13;;;;;;;6.96;94.00;99654.94;5053613;28;20395;-60
2022/01/04 06:50:47;;;;;;;24.13;15.37;;;;;;;6.97;94.12;99661.03;5054092;28;20029;-60
2022/01/04 06:53:13;;;;;;;29.13;15.47;;;;;;;6.96;94.16;99654.94;5052924;28;20392;-60
2022/01/04 06:55:38;;;;;;;33.23;16.23;;;;;;;6.97;94.03;99643.38;5056398;28;20025;-60
2022/01/04 06:58:03;;;;;;;30.20;14.97;;;;;;;6.96;94.02;99633.81;5055753;28;20040;-60
2022/01/04 07:00:28;;;;;;;28.50;16.03;;;;;;;6.96;94.19;99633.81;5056963;28;20104;-60
2022/01/04 07:02:54;;;;;;;30.27;16.50;;;;;;;6.97;94.41;99640.75;5057189;28;20427;-60
2022/01/04 07:05:19;;;;;;;32.47;17.20;;;;;;;6.98;94.27;99631.00;5056408;28;20071;-60
2022/01/04 07:07:44;;;;;;;32.67;15.80;;;;;;;6.99;94.11;99624.72;5060094;28;20032;-60
2022/01/04 07:10:10;;;;;;;33.43;17.60;;;;;;;6.99;94.04;99622.09;5058598;28;20353;-60
2022/01/04 07:12:35;;;;;;;29.23;16.43;;;;;;;6.97;94.37;99614.34;5053496;28;20406;-60
2022/01/04 07:15:01;;;;;;;34.40;17.13;;;;;;;6.96;94.42;99607.44;5056180;28;20033;-60
2022/01/04 07:17:26;;;;;;;32.20;17.17;;;;;;;6.98;94.31;99612.53;5056430;28;20103;-60
2022/01/04 07:19:51;;;;;;;29.00;16.63;;;;;;;6.97;94.47;99610.91;5059506;28;20024;-60
2022/01/04 07:22:17;;;;;;;35.60;17.67;;;;;;;6.98;94.18;99613.34;5053981;28;20044;-60
2022/01/04 07:24:42;;;;;;;30.43;17.63;;;;;;;6.99;94.13;99595.69;5054832;28;20017;-60
2022/01/04 07:27:07;;;;;;;32.30;18.03;;;;;;;6.98;94.58;99591.41;5054971;28;20064;-60
2022/01/04 07:29:32;;;;;;;33.90;19.63;;;;;;;6.98;94.38;99594.06;5047902;28;20029;-60
2022/01/04 07:31:58;;;;;;;33.17;18.83;;;;;;;6.98;94.46;99584.31;5052010;28;20087;-60
2022/01/04 07:34:23;;;;;;;36.73;20.20;;;;;;;7.00;94.20;99576.22;5055411;28;20025;-60
2022/01/04 07:36:48;;;;;;;33.97;19.10;;;;;;;6.99;94.26;99580.69;5056816;28;20031;-59
2022/01/04 07:39:14;;;;;;;36.60;19.43;;;;;;;6.99;94.35;99582.50;5061280;28;20378;-59
2022/01/04 07:41:39;;;;;;;33.20;18.53;;;;;;;6.99;94.23;99571.94;5061559;28;20039;-60
2022/01/04 07:44:05;;;;;;;32.42;17.45;;;;;;;6.98;94.17;99576.41;5057810;28;20117;-60
2022/01/04 07:46:30;;;;;;;33.33;17.93;;;;;;;6.98;94.04;99584.31;5060741;28;20036;-60
2022/01/04 07:48:55;;;;;;;36.07;18.33;;;;;;;6.97;94.24;99587.97;5061418;28;20043;-60
2022/01/04 07:51:20;;;;;;;34.40;18.33;;;;;;;6.99;94.70;99601.78;5062136;28;20065;-60
2022/01/04 07:53:47;;;;;;;34.60;18.17;;;;;;;6.99;94.55;99596.53;5064286;28;20037;-60
2022/01/04 07:56:12;;;;;;;32.80;18.47;;;;;;;6.99;94.18;99601.78;5052971;28;20043;-60
2022/01/04 07:58:37;;;;;;;33.80;18.20;;;;;;;7.00;94.30;99598.16;5051824;28;20469;-60
2022/01/04 08:01:03;;;;;;;33.27;17.87;;;;;;;6.99;94.52;99596.53;5053484;28;21269;-60
2022/01/04 08:03:28;;;;;;;33.93;19.43;;;;;;;7.01;94.43;99598.97;5063758;28;20039;-60
2022/01/04 08:05:53;;;;;;;33.67;19.17;;;;;;;7.00;94.31;99590.25;5057435;28;20387;-60
2022/01/04 08:08:19;;;;;;;34.10;19.77;;;;;;;7.00;94.38;99582.31;5061485;28;20090;-60
2022/01/04 08:10:46;;;;;;;36.47;19.03;;;;;;;7.01;94.47;99589.25;5061005;28;20052;-61
2022/01/04 08:13:12;;;;;;;36.17;20.03;;;;;;;7.02;94.79;99590.06;5066001;28;20108;-60
2022/01/04 08:15:37;;;;;;;37.40;20.17;;;;;;;7.01;94.76;99583.16;5053624;28;20111;-60
2022/01/04 08:18:03;;;;;;;36.53;20.47;;;;;;;7.02;94.42;99592.69;5064930;28;20029;-60
2022/01/04 08:20:28;;;;;;;38.97;19.73;;;;;;;7.01;94.48;99597.16;5063437;28;20048;-60
2022/01/04 08:22:53;;;;;;;40.33;20.97;;;;;;;7.02;94.67;99600.63;5058037;28;20028;-61
2022/01/04 08:25:19;;;;;;;43.87;22.93;;;;;;;7.05;94.75;99609.00;5053785;28;20639;-61
2022/01/04 08:27:44;;;;;;;38.13;21.80;;;;;;;7.07;94.21;99608.81;5076829;28;20066;-60
2022/01/04 08:30:12;;;;;;;42.23;22.20;;;;;;;7.06;94.30;99608.00;5060698;28;20029;-60
2022/01/04 08:32:38;;;;;;;41.77;22.60;;;;;;;7.07;94.47;99607.00;5054116;28;20032;-60
2022/01/04 08:35:04;;;;;;;39.70;22.37;;;;;;;7.09;94.45;99610.28;5061384;28;20036;-61
2022/01/04 08:37:30;;;;;;;36.13;21.60;;;;;;;7.10;94.69;99611.09;5059362;28;20025;-60
2022/01/04 08:39:56;;;;;;;40.37;23.30;;;;;;;7.08;94.51;99605.19;5052862;28;20131;-61
2022/01/04 08:42:22;;;;;;;39.57;24.17;;;;;;;7.08;94.25;99595.44;5060798;28;20037;-60
2022/01/04 08:44:51;;;;;;;40.97;23.50;;;;;;;7.09;94.09;99612.09;5061463;28;20052;-61
2022/01/04 08:47:16;;;;;;;44.25;24.08;;;;;;;7.08;94.07;99621.84;5059205;28;20027;-60
2022/01/04 08:49:42;;;;;;;40.23;23.83;;;;;;;7.08;94.17;99627.13;5055463;28;20376;-60
2022/01/04 08:52:07;;;;;;;43.20;22.97;;;;;;;7.07;94.28;99614.91;5060741;28;20017;-60
2022/01/04 08:54:33;;;;;;;40.23;23.10;;;;;;;7.09;94.51;99631.41;5058687;28;20052;-61
2022/01/04 08:56:59;;;;;;;38.90;23.00;;;;;;;7.09;94.60;99633.22;5060213;28;20043;-60
2022/01/04 08:59:25;;;;;;;41.67;23.07;;;;;;;7.09;94.35;99625.28;5051498;28;20488;-60
2022/01/04 09:01:51;;;;;;;37.20;23.13;;;;;;;7.11;94.33;99636.50;5060377;28;20045;-60
2022/01/04 09:04:16;;;;;;;41.70;23.87;;;;;;;7.12;94.66;99632.84;5056260;28;20146;-60
2022/01/04 09:06:42;;;;;;;41.27;23.33;;;;;;;7.14;94.91;99630.88;5069776;28;20124;-60
2022/01/04 09:09:08;;;;;;;41.75;24.23;;;;;;;7.14;94.43;99631.69;5064327;28;20453;-60
2022/01/04 09:11:33;;;;;;;47.03;25.80;;;;;;;7.16;94.22;99628.88;5059947;28;20077;-60
2022/01/04 09:19:17;;;;;;;46.10;25.73;;;;;;;7.22;94.27;99614.13;5058821;28;20465;-60
2022/01/04 09:21:43;;;;;;;45.77;27.60;;;;;;;7.23;94.56;99613.97;5056262;28;20060;-60
2022/01/04 09:24:08;;;;;;;47.13;27.47;;;;;;;7.23;94.39;99619.25;5063676;28;20381;-60
2022/01/04 09:26:33;;;;;;;48.70;28.17;;;;;;;7.26;94.09;99626.81;5059424;28;20063;-61
2022/01/04 09:28:59;;;;;;;51.03;28.87;;;;;;;7.27;94.53;99625.00;5054771;28;20032;-60
2022/01/04 09:31:26;;;;;;;50.47;28.10;;;;;;;7.29;94.09;99636.19;5054977;28;20066;-60
2022/01/04 09:33:53;;;;;;;48.63;28.23;;;;;;;7.30;94.19;99640.47;5061503;28;20510;-60
2022/01/04 09:36:19;;;;;;;49.03;28.27;;;;;;;7.29;93.76;99634.38;5068539;28;20027;-60
2022/01/04 09:38:44;;;;;;;50.03;28.17;;;;;;;7.31;94.05;99640.28;5055245;28;20100;-61
2022/01/04 09:41:09;;;;;;;49.87;27.37;;;;;;;7.33;94.18;99640.13;5056212;28;20031;-60
2022/01/04 09:43:34;;;;;;;47.77;27.27;;;;;;;7.32;93.78;99643.75;5053226;28;20075;-60
2022/01/04 09:46:00;;;;;;;46.73;26.60;;;;;;;7.35;93.75;99646.03;5056140;28;20107;-61
2022/01/04 09:48:26;;;;;;;46.07;25.70;;;;;;;7.34;93.66;99644.41;5064831;28;20545;-60
2022/01/04 09:50:55;;;;;;;46.00;27.33;;;;;;;7.34;93.64;99644.41;5056663;28;20203;-60
2022/01/04 09:53:21;;;;;;;48.47;25.55;;;;;;;7.35;93.83;99638.09;5056968;28;20016;-60
2022/01/04 09:55:55;;;;;;;50.60;26.92;;;;;;;7.37;93.87;99628.19;5054140;28;20033;-60
2022/01/04 09:58:22;;;;;;;45.43;26.40;;;;;;;7.37;93.95;99625.53;5054970;28;20021;-61
2022/01/04 10:00:49;;;;;;;51.33;27.40;;;;;;;7.38;93.94;99621.91;5061978;28;20029;-60
2022/01/04 10:03:22;;;;;;;42.35;25.50;;;;;;;7.39;93.46;99626.19;5055103;28;20059;-60
2022/01/04 10:05:47;;;;;;;44.63;25.42;;;;;;;7.39;93.95;99627.00;5054858;28;20495;-61
2022/01/04 10:08:13;;;;;;;43.33;25.67;;;;;;;7.40;93.82;99620.72;5054790;28;20033;-61
2022/01/04 10:10:40;;;;;;;48.87;27.13;;;;;;;7.41;93.64;99632.09;5052816;28;20017;-60
2022/01/04 10:13:11;;;;;;;47.50;26.77;;;;;;;7.42;93.66;99631.09;5058045;28;20032;-60
2022/01/04 10:15:38;;;;;;;45.28;27.85;;;;;;;7.43;93.69;99622.19;5051810;28;20027;-61
2022/01/04 10:18:13;;;;;;;48.10;27.58;;;;;;;7.44;93.67;99600.88;5056286;28;20114;-60
2022/01/04 10:20:42;;;;;;;48.55;26.80;;;;;;;7.45;93.82;99605.16;5060648;28;20027;-60
2022/01/04 10:23:09;;;;;;;47.58;26.75;;;;;;;7.46;93.64;99588.28;5061769;28;20031;-61
2022/01/04 10:25:35;;;;;;;46.72;26.38;;;;;;;7.48;93.33;99588.13;5053577;28;20072;-60
2022/01/04 10:28:00;;;;;;;43.97;24.70;;;;;;;7.49;93.23;99589.75;5062073;28;20519;-60
2022/01/04 10:30:31;;;;;;;45.27;26.43;;;;;;;7.51;93.29;99584.28;5054656;28;20040;-60
2022/01/04 10:33:13;;;;;;;47.70;26.30;;;;;;;7.55;93.61;99604.09;5055546;28;20138;-60
2022/01/04 10:35:50;;;;;;;43.13;26.15;;;;;;;7.53;93.31;99598.16;5061268;28;20480;-60
2022/01/04 10:38:17;;;;;;;42.87;25.60;;;;;;;7.55;93.18;99596.16;5048535;28;20056;-60
2022/01/04 10:40:58;;;;;;;50.20;27.08;;;;;;;7.56;93.15;99580.13;5050150;28;20056;-60
2022/01/04 10:43:27;;;;;;;41.05;25.08;;;;;;;7.55;93.23;99589.06;5050600;28;20028;-61
2022/01/04 10:45:53;;;;;;;45.38;25.05;;;;;;;7.58;93.07;99593.97;5050874;28;20079;-60
2022/01/04 10:48:22;;;;;;;44.40;24.75;;;;;;;7.60;93.53;99586.69;5051620;28;20049;-61
2022/01/04 10:50:59;;;;;;;43.90;25.83;;;;;;;7.60;93.40;99577.94;5051778;28;20052;-60
2022/01/04 10:54:08;;;;;;;43.55;26.10;;;;;;;7.63;93.44;99588.13;5061396;28;20062;-61
2022/01/04 10:56:37;;;;;;;;;;;;;;;7.63;93.22;99585.50;5061655;28;20031;-60
2022/01/04 10:59:06;;;;;;;44.97;24.60;;;;;;;7.60;93.47;99591.97;5062983;28;19919;-60
2022/01/04 11:01:40;;;;;;;39.30;25.27;;;;;;;7.62;93.14;99595.25;5059275;28;20472;-60
2022/01/04 11:04:18;;;;;;;46.70;24.60;;;;;;;7.62;93.49;99600.53;5055569;28;20028;-60
2022/01/04 11:06:44;;;;;;;46.83;26.10;;;;;;;7.60;93.50;99591.97;5050935;28;20025;-60
2022/01/04 11:09:11;;;;;;;46.28;26.25;;;;;;;7.63;93.66;99604.81;5060665;28;20036;-61
2022/01/04 11:11:36;;;;;;;42.40;25.38;;;;;;;7.60;93.60;99601.72;5053800;28;20210;-60
2022/01/04 11:14:03;;;;;;;48.43;27.20;;;;;;;7.59;93.70;99592.97;5056988;28;20112;-60
2022/01/04 11:16:30;;;;;;;49.70;26.33;;;;;;;7.59;93.79;99600.06;5056514;28;20056;-60
2022/01/04 11:18:57;;;;;;;47.55;27.25;;;;;;;7.59;94.12;99594.78;5054127;28;20035;-60
2022/01/04 11:21:29;;;;;;;49.25;27.65;;;;;;;7.61;94.54;99598.88;5058261;28;20023;-60
2022/01/04 11:23:57;;;;;;;45.90;27.25;;;;;;;7.62;94.68;99611.09;5059481;28;20575;-60
2022/01/04 11:26:24;;;;;;;45.50;27.05;;;;;;;7.60;94.55;99615.75;5060195;28;20024;-60
2022/01/04 11:28:51;;;;;;;45.72;26.75;;;;;;;7.59;94.65;99606.19;5055963;28;20075;-60
2022/01/04 11:31:23;;;;;;;47.85;27.45;;;;;;;7.58;94.89;99601.91;5065229;28;20480;-60
2022/01/04 11:33:58;;;;;;;13.02;9.10;;;;;;;7.52;94.07;99610.56;5059662;28;20090;-60
2022/01/04 11:36:24;;;;;;;16.38;11.35;;;;;;;7.42;93.36;99607.34;5061901;28;20044;-60
2022/01/04 11:38:50;;;;;;;25.25;12.80;;;;;;;7.39;93.41;99612.97;5060311;28;20017;-60
2022/01/04 11:41:42;;;;;;;17.17;10.90;;;;;;;7.41;93.15;99624.19;5058679;28;20025;-60